Time;durP1;ratioP1;P1;durP2;ratioP2;P2;SDS_P1;SDS_P2;PMS_P1;PMS_P2;Temp;Humidity;BMP_temperature;BMP_pressure;BME280_temperature;BME280_humidity;BME280_pressure;Samples;Min_cycle;Max_cycle;Signal;HPM_P1;HPM_P2
2023/06/18 00:01:25;;;;;;;8.32;4.88;;;23.80;62.20;;;;;;5031990;28;20113;-76
2023/06/18 00:03:51;;;;;;;8.20;5.20;;;23.80;62.30;;;;;;5014650;28;20065;-75
2023/06/18 00:06:16;;;;;;;9.35;5.55;;;23.80;61.90;;;;;;5032204;28;20483;-76
2023/06/18 00:08:42;;;;;;;9.85;5.63;;;23.80;62.30;;;;;;5014140;28;20509;-76
2023/06/18 00:11:07;;;;;;;7.00;4.95;;;23.80;62.20;;;;;;5040662;28;20032;-75
2023/06/18 00:13:33;;;;;;;9.80;6.35;;;23.80;62.10;;;;;;5051359;28;20048;-75
2023/06/18 00:15:59;;;;;;;10.02;6.72;;;23.70;62.20;;;;;;5050960;28;20100;-77
2023/06/18 00:18:24;;;;;;;9.48;5.53;;;23.70;62.10;;;;;;5050553;28;20108;-76
2023/06/18 00:20:50;;;;;;;12.13;7.13;;;23.70;62.00;;;;;;5050597;28;20588;-77
2023/06/18 00:23:15;;;;;;;8.32;4.80;;;23.70;62.20;;;;;;5050857;28;20021;-76
2023/06/18 00:25:42;;;;;;;10.52;5.70;;;23.60;61.80;;;;;;5050734;28;20029;-78
2023/06/18 00:28:07;;;;;;;6.95;4.22;;;23.60;62.00;;;;;;5033334;28;20025;-77
2023/06/18 00:30:33;;;;;;;10.90;5.43;;;23.60;61.90;;;;;;5052422;28;20086;-77
2023/06/18 00:33:00;;;;;;;9.85;4.70;;;23.60;61.80;;;;;;5050299;28;20040;-75
2023/06/18 00:35:26;;;;;;;8.95;6.03;;;23.60;61.90;;;;;;5031403;28;20653;-76
2023/06/18 00:37:52;;;;;;;7.72;4.95;;;23.60;61.80;;;;;;5049250;28;20108;-77
2023/06/18 00:40:18;;;;;;;8.60;5.07;;;23.60;61.60;;;;;;5050320;28;20029;-75
2023/06/18 00:42:43;;;;;;;7.32;4.68;;;23.60;61.50;;;;;;5055771;28;20896;-75
2023/06/18 00:45:09;;;;;;;8.15;4.80;;;23.60;61.50;;;;;;5070192;28;20032;-75
2023/06/18 00:47:44;;;;;;;8.07;4.97;;;23.50;61.40;;;;;;5055191;28;20029;-75
2023/06/18 00:50:14;;;;;;;8.32;5.20;;;23.50;62.00;;;;;;5031728;28;20211;-75
2023/06/18 00:52:44;;;;;;;8.80;4.60;;;23.50;61.20;;;;;;5049619;28;20029;-76
2023/06/18 00:55:11;;;;;;;11.95;4.90;;;23.50;61.10;;;;;;5049650;28;20055;-76
2023/06/18 00:57:37;;;;;;;7.35;4.28;;;23.50;61.10;;;;;;5049830;28;20383;-75
2023/06/18 01:00:09;;;;;;;7.50;4.20;;;23.50;61.10;;;;;;5049589;28;20029;-76
2023/06/18 01:02:35;;;;;;;6.72;4.85;;;23.50;61.00;;;;;;5049945;28;20489;-75
2023/06/18 01:05:02;;;;;;;8.88;4.82;;;23.50;60.90;;;;;;5049898;28;20028;-75
2023/06/18 01:07:28;;;;;;;7.95;3.92;;;23.50;60.90;;;;;;5049968;28;20067;-76
2023/06/18 01:09:54;;;;;;;7.03;4.55;;;23.50;60.90;;;;;;5049469;28;20024;-75
2023/06/18 01:12:33;;;;;;;7.72;4.55;;;23.40;60.90;;;;;;5030920;28;20109;-76
2023/06/18 01:14:59;;;;;;;7.18;4.68;;;23.40;61.00;;;;;;5029932;28;20021;-76
2023/06/18 01:17:33;;;;;;;8.20;4.40;;;23.40;61.00;;;;;;5029604;28;20021;-77
2023/06/18 01:20:10;;;;;;;7.95;4.00;;;23.40;61.00;;;;;;5028608;28;20491;-76
2023/06/18 01:22:44;;;;;;;7.32;4.50;;;23.30;61.00;;;;;;5032476;28;20033;-76
2023/06/18 01:25:10;;;;;;;8.15;4.53;;;23.30;61.00;;;;;;5049462;28;20025;-75
2023/06/18 01:27:40;;;;;;;8.32;4.07;;;23.30;61.00;;;;;;5050877;28;20021;-75
2023/06/18 01:30:13;;;;;;;9.15;4.25;;;23.30;61.00;;;;;;5050203;28;20048;-75
2023/06/18 01:32:39;;;;;;;7.57;4.53;;;23.20;61.10;;;;;;5049200;28;20045;-76
2023/06/18 01:35:07;;;;;;;11.20;6.15;;;23.20;61.30;;;;;;5042928;28;20023;-75
2023/06/18 01:37:55;;;;;;;8.05;4.28;;;23.20;61.40;;;;;;5029148;28;20021;-75
2023/06/18 01:40:45;;;;;;;6.82;4.22;;;23.20;61.50;;;;;;5029144;28;20036;-76
2023/06/18 01:43:17;;;;;;;8.52;5.72;;;23.10;61.50;;;;;;5039833;28;20025;-76
2023/06/18 01:46:03;;;;;;;10.93;4.93;;;23.20;61.60;;;;;;5029164;28;20029;-76
2023/06/18 01:48:41;;;;;;;7.68;4.63;;;23.10;61.70;;;;;;5049040;28;20084;-75
2023/06/18 01:51:07;;;;;;;7.05;4.45;;;23.00;61.90;;;;;;5033269;28;20116;-75
2023/06/18 01:53:35;;;;;;;7.10;3.97;;;23.00;62.00;;;;;;5030431;28;20052;-76
2023/06/18 01:56:01;;;;;;;7.70;4.93;;;23.00;62.00;;;;;;5048599;28;20029;-75
2023/06/18 01:58:31;;;;;;;7.97;4.72;;;22.90;62.20;;;;;;5048972;28;20021;-74
2023/06/18 02:00:58;;;;;;;8.00;4.85;;;22.90;62.40;;;;;;5050584;28;20098;-76
2023/06/18 02:03:25;;;;;;;10.95;5.53;;;22.90;62.40;;;;;;5043781;28;20025;-76
2023/06/18 02:05:51;;;;;;;8.05;4.90;;;22.90;62.60;;;;;;5044879;28;20025;-76
2023/06/18 02:08:17;;;;;;;9.55;5.53;;;22.80;62.60;;;;;;5049828;28;20537;-75
2023/06/18 02:10:43;;;;;;;7.85;4.82;;;22.80;62.70;;;;;;5050929;28;20021;-75
2023/06/18 02:13:09;;;;;;;8.43;4.72;;;22.80;62.90;;;;;;5049550;28;20120;-75
2023/06/18 02:15:36;;;;;;;10.07;4.78;;;22.80;63.00;;;;;;5050354;28;20017;-75
2023/06/18 02:18:01;;;;;;;8.18;4.68;;;22.80;63.10;;;;;;5050523;28;20017;-76
2023/06/18 02:20:27;;;;;;;8.75;5.50;;;22.70;63.20;;;;;;5050794;28;20032;-76
2023/06/18 02:22:53;;;;;;;8.77;5.30;;;22.70;63.40;;;;;;5052256;28;20029;-75
2023/06/18 02:25:19;;;;;;;7.75;5.25;;;22.70;63.50;;;;;;5050282;28;20387;-75
2023/06/18 02:27:57;;;;;;;8.90;5.10;;;22.70;63.60;;;;;;5050903;28;20029;-75
2023/06/18 02:30:24;;;;;;;8.98;5.65;;;22.70;63.70;;;;;;5050995;28;20076;-76
2023/06/18 02:32:49;;;;;;;8.77;5.60;;;22.70;63.80;;;;;;5050875;28;20495;-76
2023/06/18 02:35:15;;;;;;;9.38;6.05;;;22.60;63.80;;;;;;5050893;28;20024;-75
2023/06/18 02:37:42;;;;;;;8.77;5.82;;;22.60;64.10;;;;;;5051219;28;20029;-76
2023/06/18 02:40:09;;;;;;;7.93;5.20;;;22.50;64.30;;;;;;5031959;28;20021;-75
2023/06/18 02:42:46;;;;;;;10.90;6.07;;;22.50;64.40;;;;;;5055244;28;20020;-75
2023/06/18 02:45:13;;;;;;;9.73;5.63;;;22.50;65.30;;;;;;5071211;28;20482;-75
2023/06/18 02:47:38;;;;;;;7.70;4.75;;;22.40;64.70;;;;;;5051140;28;20025;-75
2023/06/18 02:50:05;;;;;;;9.02;5.63;;;22.40;64.90;;;;;;5026221;28;20117;-74
2023/06/18 02:52:32;;;;;;;8.77;6.07;;;22.40;65.00;;;;;;5049863;28;20038;-75
2023/06/18 02:54:58;;;;;;;10.00;5.78;;;22.30;65.20;;;;;;5047903;28;20032;-76
2023/06/18 02:57:23;;;;;;;11.68;6.00;;;22.30;65.30;;;;;;5031929;28;20033;-76
2023/06/18 02:59:49;;;;;;;9.90;6.00;;;22.20;65.60;;;;;;5042366;28;20116;-75
2023/06/18 03:02:15;;;;;;;10.25;6.45;;;22.20;65.80;;;;;;5039759;28;20017;-76
2023/06/18 03:04:40;;;;;;;11.77;6.70;;;22.20;66.00;;;;;;5046889;28;20043;-75
2023/06/18 03:07:06;;;;;;;10.48;6.70;;;22.20;66.00;;;;;;5045624;28;20029;-76
2023/06/18 03:09:31;;;;;;;9.88;7.15;;;22.10;66.10;;;;;;5027835;28;20025;-75
2023/06/18 03:11:57;;;;;;;10.77;6.63;;;22.10;66.50;;;;;;5062339;28;20032;-75
2023/06/18 03:14:24;;;;;;;10.00;6.22;;;22.00;66.60;;;;;;5047431;28;20032;-75
2023/06/18 03:16:50;;;;;;;10.93;7.03;;;22.00;66.80;;;;;;5047708;28;20041;-75
2023/06/18 03:19:15;;;;;;;10.90;6.90;;;22.00;67.10;;;;;;5066470;28;20021;-74
2023/06/18 03:21:41;;;;;;;10.77;6.93;;;22.00;67.20;;;;;;5066357;28;20025;-75
2023/06/18 03:24:06;;;;;;;12.50;6.78;;;22.00;67.20;;;;;;5064839;28;20123;-76
2023/06/18 03:26:36;;;;;;;13.88;6.72;;;22.00;67.30;;;;;;5066318;28;20087;-74
2023/06/18 03:29:05;;;;;;;8.70;6.53;;;22.00;67.40;;;;;;5061653;28;20112;-75
2023/06/18 03:31:32;;;;;;;10.75;6.72;;;22.00;67.70;;;;;;5052651;28;20116;-74
2023/06/18 03:34:01;;;;;;;12.25;7.18;;;21.90;67.80;;;;;;5053584;28;20040;-75
2023/06/18 03:36:34;;;;;;;9.10;6.40;;;21.90;68.00;;;;;;5053589;28;20025;-76
2023/06/18 03:39:00;;;;;;;9.50;7.28;;;21.90;68.10;;;;;;5054677;28;20033;-74
2023/06/18 03:41:25;;;;;;;12.60;6.97;;;21.90;68.20;;;;;;5051627;28;20480;-75
2023/06/18 03:43:51;;;;;;;12.15;7.55;;;21.90;68.90;;;;;;5066276;28;20032;-74
2023/06/18 03:46:17;;;;;;;9.60;6.47;;;21.90;68.40;;;;;;5069128;28;20467;-76
2023/06/18 03:48:43;;;;;;;11.43;7.47;;;21.80;68.20;;;;;;5034197;28;20025;-75
2023/06/18 03:51:08;;;;;;;10.48;7.13;;;21.80;68.40;;;;;;5032805;28;20018;-76
2023/06/18 03:53:36;;;;;;;12.02;7.75;;;21.80;68.60;;;;;;5034995;28;20036;-76
2023/06/18 03:56:08;;;;;;;11.43;7.13;;;21.80;69.00;;;;;;5036629;28;20021;-76
2023/06/18 03:58:33;;;;;;;11.38;6.32;;;21.80;69.00;;;;;;5036966;28;20076;-75
2023/06/18 04:00:59;;;;;;;10.43;7.30;;;21.80;68.70;;;;;;5038207;28;20475;-74
2023/06/18 04:03:24;;;;;;;10.40;7.38;;;21.70;68.90;;;;;;5054115;28;20449;-75
2023/06/18 04:05:50;;;;;;;12.98;7.50;;;21.70;69.20;;;;;;5053401;28;20043;-75
2023/06/18 04:08:16;;;;;;;9.20;7.00;;;21.70;69.40;;;;;;5051465;28;20031;-76
2023/06/18 04:10:43;;;;;;;12.98;7.80;;;21.70;69.40;;;;;;5032558;28;20025;-75
2023/06/18 04:13:14;;;;;;;10.40;7.50;;;21.70;69.50;;;;;;5013621;28;20041;-75
2023/06/18 04:15:40;;;;;;;11.05;7.95;;;21.70;69.50;;;;;;5013680;28;20656;-75
2023/06/18 04:18:06;;;;;;;11.07;6.95;;;21.70;69.70;;;;;;5030796;28;20052;-76
2023/06/18 04:20:31;;;;;;;13.73;7.90;;;21.70;69.80;;;;;;5031545;28;20410;-74
2023/06/18 04:22:57;;;;;;;15.07;8.63;;;21.70;70.10;;;;;;5034744;28;20074;-76
2023/06/18 04:25:22;;;;;;;11.88;6.95;;;21.70;70.10;;;;;;5050779;28;20497;-74
2023/06/18 04:27:48;;;;;;;10.48;7.35;;;21.70;70.10;;;;;;5033002;28;20020;-75
2023/06/18 04:30:14;;;;;;;12.05;7.65;;;21.70;70.20;;;;;;5050764;28;20072;-75
2023/06/18 04:32:39;;;;;;;11.75;7.95;;;21.70;70.30;;;;;;5049888;28;20103;-73
2023/06/18 04:35:06;;;;;;;14.10;8.05;;;21.80;70.30;;;;;;5042686;28;20064;-75
2023/06/18 04:37:31;;;;;;;11.00;8.48;;;21.80;70.40;;;;;;5030637;28;20030;-75
2023/06/18 04:39:57;;;;;;;11.73;7.75;;;21.80;70.50;;;;;;5030121;28;20024;-75
2023/06/18 04:42:22;;;;;;;9.73;7.07;;;21.90;70.70;;;;;;5036912;28;20478;-76
2023/06/18 04:44:48;;;;;;;13.45;8.13;;;21.90;70.20;;;;;;5068699;28;20134;-75
2023/06/18 04:47:14;;;;;;;12.43;7.75;;;21.90;70.40;;;;;;5053790;28;20034;-75
2023/06/18 04:49:39;;;;;;;11.05;7.93;;;21.90;70.40;;;;;;5030146;28;20553;-74
2023/06/18 04:52:07;;;;;;;12.57;8.20;;;22.00;70.50;;;;;;5030910;28;20029;-75
2023/06/18 04:54:33;;;;;;;11.52;8.05;;;22.10;70.40;;;;;;5031295;28;20476;-75
2023/06/18 04:56:58;;;;;;;13.18;8.38;;;22.10;70.40;;;;;;5031025;28;20159;-75
2023/06/18 04:59:24;;;;;;;12.75;7.53;;;22.10;70.10;;;;;;5030744;28;20132;-76
2023/06/18 05:01:51;;;;;;;14.02;9.02;;;22.10;70.40;;;;;;5029880;28;20033;-75
2023/06/18 05:04:16;;;;;;;10.90;7.60;;;22.10;70.20;;;;;;5012209;28;20044;-75
2023/06/18 05:06:42;;;;;;;13.73;8.23;;;22.20;70.20;;;;;;5034084;28;20025;-74
2023/06/18 05:09:08;;;;;;;9.25;6.47;;;22.20;70.40;;;;;;5033317;28;20022;-75
2023/06/18 05:11:34;;;;;;;11.35;7.80;;;22.30;68.70;;;;;;5041292;28;20029;-75
2023/06/18 05:14:00;;;;;;;11.43;8.10;;;22.30;69.50;;;;;;5053461;28;20047;-74
2023/06/18 05:16:27;;;;;;;12.35;7.43;;;22.30;69.70;;;;;;5052478;28;20044;-75
2023/06/18 05:18:52;;;;;;;11.38;7.97;;;22.40;69.30;;;;;;5036910;28;20051;-74
2023/06/18 05:21:18;;;;;;;10.27;7.63;;;22.40;69.60;;;;;;5033170;28;20028;-74
2023/06/18 05:23:44;;;;;;;11.88;8.23;;;22.40;69.80;;;;;;5045084;28;20036;-74
2023/06/18 05:26:10;;;;;;;11.27;7.90;;;22.40;69.70;;;;;;5051439;28;20666;-75
2023/06/18 05:28:36;;;;;;;10.07;6.95;;;22.40;69.50;;;;;;5035570;28;20032;-75
2023/06/18 05:31:01;;;;;;;10.02;7.50;;;22.40;69.70;;;;;;5053892;28;20079;-75
2023/06/18 05:33:27;;;;;;;11.13;7.03;;;22.50;69.80;;;;;;5035518;28;20089;-74
2023/06/18 05:35:52;;;;;;;9.00;5.90;;;22.60;69.60;;;;;;5052163;28;20036;-75
2023/06/18 05:38:18;;;;;;;14.82;8.25;;;22.60;69.00;;;;;;5049803;28;20029;-75
2023/06/18 05:40:44;;;;;;;11.43;7.45;;;22.60;69.10;;;;;;5031634;28;20021;-74
2023/06/18 05:43:09;;;;;;;16.15;9.50;;;22.70;69.60;;;;;;5058984;28;20033;-75
2023/06/18 05:45:35;;;;;;;14.90;8.10;;;22.80;69.20;;;;;;5032152;28;20091;-74
2023/06/18 05:48:00;;;;;;;9.80;7.45;;;22.90;68.90;;;;;;5046631;28;20068;-72
2023/06/18 05:50:27;;;;;;;13.35;8.93;;;23.00;68.60;;;;;;5031096;28;20025;-74
2023/06/18 05:52:53;;;;;;;9.20;6.68;;;23.10;68.60;;;;;;5047904;28;20425;-74
2023/06/18 05:55:18;;;;;;;14.38;10.00;;;23.10;68.20;;;;;;5037323;28;20078;-75
2023/06/18 05:57:44;;;;;;;11.13;6.80;;;23.20;68.40;;;;;;5052487;28;20049;-75
2023/06/18 06:00:11;;;;;;;13.73;8.80;;;23.20;67.60;;;;;;5052797;28;20383;-75
2023/06/18 06:02:37;;;;;;;9.38;6.88;;;23.30;67.50;;;;;;5052331;28;20040;-75
2023/06/18 06:05:02;;;;;;;11.68;8.02;;;23.50;67.20;;;;;;5053353;28;20025;-75
2023/06/18 06:07:28;;;;;;;12.77;9.70;;;23.60;66.80;;;;;;5053231;28;20104;-74
2023/06/18 06:09:55;;;;;;;12.18;8.55;;;23.60;66.20;;;;;;5053703;28;20655;-75
2023/06/18 06:12:21;;;;;;;12.73;7.80;;;23.70;65.50;;;;;;5053468;28;20108;-75
2023/06/18 06:14:47;;;;;;;15.55;11.63;;;23.80;64.80;;;;;;5053363;28;20028;-76
2023/06/18 06:17:13;;;;;;;11.48;7.65;;;23.70;65.20;;;;;;5035681;28;20383;-76
2023/06/18 06:19:39;;;;;;;10.13;6.57;;;23.80;65.10;;;;;;5052944;28;20528;-75
2023/06/18 06:22:04;;;;;;;14.55;9.20;;;23.80;64.90;;;;;;5035681;28;20087;-75
2023/06/18 06:24:30;;;;;;;16.13;9.45;;;23.80;64.90;;;;;;5053877;28;20025;-76
2023/06/18 06:26:55;;;;;;;12.07;9.18;;;23.90;64.60;;;;;;5053579;28;20482;-76
2023/06/18 06:29:21;;;;;;;11.68;9.40;;;24.00;64.50;;;;;;5052866;28;20028;-75
2023/06/18 06:31:47;;;;;;;15.52;11.45;;;24.10;65.20;;;;;;5034102;28;20017;-74
2023/06/18 06:34:12;;;;;;;11.63;9.40;;;24.10;63.40;;;;;;5036772;28;20146;-75
2023/06/18 06:36:38;;;;;;;13.23;10.07;;;24.20;63.40;;;;;;5057573;28;20024;-75
2023/06/18 06:39:04;;;;;;;20.73;14.88;;;24.30;63.20;;;;;;5056162;28;20036;-75
2023/06/18 06:41:30;;;;;;;19.75;14.13;;;24.40;62.50;;;;;;5035950;28;20017;-76
2023/06/18 06:43:55;;;;;;;15.95;11.95;;;24.50;62.10;;;;;;5062783;28;20045;-74
2023/06/18 06:46:21;;;;;;;15.10;9.90;;;24.50;61.30;;;;;;5049554;28;20025;-76
2023/06/18 06:48:46;;;;;;;15.27;12.95;;;24.70;61.10;;;;;;5053082;28;20414;-77
2023/06/18 06:51:12;;;;;;;15.93;11.43;;;24.80;59.30;;;;;;5053796;28;20075;-79
2023/06/18 06:53:38;;;;;;;13.45;9.73;;;24.80;59.70;;;;;;5049811;28;20032;-72
2023/06/18 06:56:04;;;;;;;11.73;7.80;;;25.00;59.80;;;;;;5049888;28;20455;-74
2023/06/18 06:58:30;;;;;;;10.95;7.65;;;25.20;59.50;;;;;;5039167;28;20553;-72
2023/06/18 07:00:55;;;;;;;12.63;9.13;;;25.40;59.30;;;;;;5042935;28;20406;-73
2023/06/18 07:03:21;;;;;;;11.73;8.75;;;25.30;58.40;;;;;;5061728;28;20033;-72
2023/06/18 07:05:46;;;;;;;14.10;10.60;;;25.30;58.20;;;;;;5058268;28;20036;-72
2023/06/18 07:08:12;;;;;;;12.93;9.73;;;25.30;57.50;;;;;;5046472;28;20420;-73
2023/06/18 07:10:37;;;;;;;10.10;7.20;;;25.30;57.10;;;;;;5025179;28;20025;-71
2023/06/18 07:13:03;;;;;;;17.77;10.35;;;25.20;57.10;;;;;;5054219;28;20044;-72
2023/06/18 07:15:29;;;;;;;14.10;10.02;;;25.40;56.90;;;;;;5059665;28;20025;-71
2023/06/18 07:17:54;;;;;;;15.38;11.00;;;25.40;56.80;;;;;;5051842;28;20025;-71
2023/06/18 07:20:20;;;;;;;9.52;7.47;;;25.40;56.00;;;;;;5050624;28;20025;-72
2023/06/18 07:22:46;;;;;;;13.35;9.90;;;25.40;56.50;;;;;;5050839;28;20029;-72
2023/06/18 07:25:11;;;;;;;17.50;12.40;;;25.40;56.20;;;;;;5050556;28;20021;-71
2023/06/18 07:27:37;;;;;;;14.25;10.93;;;25.40;56.40;;;;;;5033051;28;20049;-72
2023/06/18 07:30:03;;;;;;;12.13;8.15;;;25.50;56.40;;;;;;5051254;28;20474;-73
2023/06/18 07:32:28;;;;;;;10.45;7.30;;;25.60;56.70;;;;;;5049293;28;20056;-72
2023/06/18 07:34:54;;;;;;;12.50;10.13;;;25.70;57.50;;;;;;5042163;28;20108;-73
2023/06/18 07:37:20;;;;;;;15.93;12.00;;;25.70;56.40;;;;;;5042762;28;20029;-71
2023/06/18 07:39:45;;;;;;;12.70;9.40;;;25.80;56.20;;;;;;5051177;28;20104;-72
2023/06/18 07:42:12;;;;;;;12.52;9.45;;;25.80;55.90;;;;;;5052225;28;20495;-72
2023/06/18 07:44:37;;;;;;;16.27;11.30;;;25.70;56.10;;;;;;5060458;28;20317;-71
2023/06/18 07:47:03;;;;;;;16.23;12.20;;;25.70;55.80;;;;;;5050356;28;20545;-73
2023/06/18 07:49:29;;;;;;;12.38;8.90;;;25.70;55.70;;;;;;5049849;28;20029;-73
2023/06/18 07:51:55;;;;;;;11.00;8.20;;;25.70;55.90;;;;;;5050493;28;20084;-73
2023/06/18 07:54:21;;;;;;;11.15;8.20;;;25.80;56.30;;;;;;5042905;28;20037;-72
2023/06/18 07:56:47;;;;;;;14.00;9.10;;;25.80;56.30;;;;;;5049234;28;20026;-72
2023/06/18 07:59:15;;;;;;;11.13;6.88;;;25.70;56.50;;;;;;5016125;28;20021;-71
2023/06/18 08:01:40;;;;;;;9.07;7.30;;;25.70;56.80;;;;;;5050806;28;20024;-73
2023/06/18 08:04:08;;;;;;;7.97;6.40;;;25.70;56.90;;;;;;5049896;28;20036;-72
2023/06/18 08:06:37;;;;;;;12.20;8.45;;;25.80;57.10;;;;;;5050663;28;20048;-72
2023/06/18 08:09:03;;;;;;;12.48;8.05;;;25.90;57.10;;;;;;5048655;28;20017;-71
2023/06/18 08:11:29;;;;;;;12.10;7.80;;;25.90;57.10;;;;;;5042341;28;20082;-71
2023/06/18 08:13:55;;;;;;;8.88;6.68;;;25.90;57.00;;;;;;5063381;28;20118;-72
2023/06/18 08:16:23;;;;;;;8.55;6.28;;;25.90;57.30;;;;;;5052359;28;20021;-71
2023/06/18 08:18:48;;;;;;;11.30;7.25;;;25.90;57.40;;;;;;5049859;28;20021;-72
2023/06/18 08:21:14;;;;;;;11.48;8.52;;;25.90;56.80;;;;;;5049039;28;20425;-72
2023/06/18 08:23:39;;;;;;;9.95;7.45;;;26.00;56.50;;;;;;5050472;28;20021;-72
2023/06/18 08:26:06;;;;;;;7.15;5.75;;;26.00;56.40;;;;;;5042027;28;20056;-71
2023/06/18 08:28:33;;;;;;;8.45;6.20;;;26.10;56.50;;;;;;5049927;28;20118;-72
2023/06/18 08:30:58;;;;;;;9.70;7.32;;;26.20;56.50;;;;;;5041884;28;20219;-73
2023/06/18 08:33:24;;;;;;;9.95;6.25;;;26.30;56.60;;;;;;5040679;28;20844;-72
2023/06/18 08:35:50;;;;;;;9.52;6.38;;;26.40;56.20;;;;;;5038469;28;20013;-72
2023/06/18 08:38:18;;;;;;;10.32;6.40;;;26.40;56.10;;;;;;5022198;28;20037;-77
2023/06/18 08:41:01;;;;;;;12.18;8.50;;;26.40;56.00;;;;;;5040657;28;20017;-76
2023/06/18 08:43:31;;;;;;;10.07;6.68;;;26.50;54.30;;;;;;5047325;28;20128;-76
2023/06/18 08:46:02;;;;;;;9.50;7.05;;;26.80;54.60;;;;;;5049759;28;20025;-77
2023/06/18 08:48:29;;;;;;;10.68;7.38;;;27.00;54.60;;;;;;5054690;28;20025;-76
2023/06/18 08:51:05;;;;;;;12.38;8.32;;;27.10;53.60;;;;;;5054806;28;20028;-77
2023/06/18 08:54:10;;;;;;;11.07;7.05;;;27.10;53.70;;;;;;5059281;28;20086;-76
2023/06/18 08:56:43;;;;;;;12.05;6.95;;;27.10;53.60;;;;;;5035592;28;20036;-76
2023/06/18 08:59:10;;;;;;;10.20;7.20;;;27.20;52.90;;;;;;5048645;28;20747;-76
2023/06/18 09:01:38;;;;;;;10.13;7.43;;;27.30;52.40;;;;;;5048643;28;20579;-77
2023/06/18 09:04:06;;;;;;;10.23;6.55;;;27.50;52.70;;;;;;5051133;28;20032;-77
2023/06/18 09:06:32;;;;;;;9.48;6.40;;;27.70;52.60;;;;;;5048611;28;20112;-77
2023/06/18 09:09:00;;;;;;;7.90;5.65;;;27.80;52.40;;;;;;5049868;28;20013;-76
2023/06/18 09:11:26;;;;;;;13.43;8.70;;;28.00;52.10;;;;;;5069570;28;20049;-76
2023/06/18 09:13:52;;;;;;;11.43;9.05;;;28.00;49.70;;;;;;5065111;28;20060;-77
2023/06/18 09:16:19;;;;;;;10.50;6.50;;;28.00;51.00;;;;;;5049874;28;20417;-76
2023/06/18 09:18:45;;;;;;;13.50;8.10;;;28.10;51.30;;;;;;5036281;28;20029;-77
2023/06/18 09:21:30;;;;;;;10.65;8.27;;;28.20;50.40;;;;;;5041882;28;20109;-76
2023/06/18 09:23:56;;;;;;;8.88;5.95;;;28.30;49.00;;;;;;5068336;28;20031;-76
2023/06/18 09:26:21;;;;;;;8.90;7.80;;;28.40;51.20;;;;;;5050688;28;20021;-78
2023/06/18 09:28:49;;;;;;;10.38;7.88;;;28.50;49.50;;;;;;5053474;28;20025;-76
2023/06/18 09:31:25;;;;;;;12.52;7.90;;;28.60;50.40;;;;;;5049002;28;20035;-76
2023/06/18 09:33:51;;;;;;;12.75;9.48;;;28.90;48.90;;;;;;5040350;28;20246;-79
2023/06/18 09:36:16;;;;;;;13.63;8.20;;;29.20;49.20;;;;;;5040087;28;20040;-76
2023/06/18 09:38:42;;;;;;;12.98;8.93;;;29.30;48.30;;;;;;5027319;28;20021;-75
2023/06/18 09:41:17;;;;;;;10.27;6.47;;;29.40;48.00;;;;;;5048534;28;20029;-73
2023/06/18 09:43:47;;;;;;;11.98;6.13;;;29.60;48.10;;;;;;5059199;28;20028;-76
2023/06/18 09:46:14;;;;;;;10.50;8.38;;;29.70;48.50;;;;;;5063866;28;20513;-75
2023/06/18 09:48:43;;;;;;;10.10;7.18;;;29.80;47.40;;;;;;5048924;28;20025;-76
2023/06/18 09:51:10;;;;;;;10.38;7.75;;;29.90;46.70;;;;;;5049777;28;20032;-77
2023/06/18 09:53:36;;;;;;;9.98;6.68;;;30.00;48.90;;;;;;5054118;28;20088;-77
2023/06/18 09:56:10;;;;;;;11.05;7.00;;;30.10;48.00;;;;;;5050815;28;20168;-76
2023/06/18 09:58:40;;;;;;;11.15;7.10;;;30.10;46.70;;;;;;5049470;28;20120;-77
2023/06/18 10:01:06;;;;;;;10.77;6.85;;;30.10;46.40;;;;;;5053936;28;20025;-76
2023/06/18 10:03:31;;;;;;;7.05;5.38;;;30.10;46.80;;;;;;5054960;28;20359;-77
2023/06/18 10:06:22;;;;;;;10.40;6.40;;;30.00;48.10;;;;;;5055343;28;20032;-77
2023/06/18 10:08:58;;;;;;;8.90;6.35;;;29.90;45.60;;;;;;5063153;28;20082;-77
2023/06/18 10:11:25;;;;;;;8.88;5.82;;;29.90;45.50;;;;;;5060417;28;20017;-76
2023/06/18 10:14:00;;;;;;;9.27;5.63;;;29.90;45.90;;;;;;5052256;28;20034;-75
2023/06/18 10:16:28;;;;;;;8.23;5.18;;;29.90;44.40;;;;;;5053048;28;20049;-75
2023/06/18 10:19:11;;;;;;;11.77;7.28;;;30.00;44.10;;;;;;5048211;28;20079;-77
2023/06/18 10:21:44;;;;;;;8.82;5.80;;;30.00;44.50;;;;;;5040152;28;20029;-76
2023/06/18 10:24:17;;;;;;;8.27;5.43;;;30.00;45.30;;;;;;5052797;28;20025;-76
2023/06/18 10:26:43;;;;;;;7.40;5.20;;;30.00;48.50;;;;;;5053007;28;20025;-78
2023/06/18 10:29:12;;;;;;;7.78;4.75;;;30.00;51.00;;;;;;5050090;28;20082;-77
2023/06/18 10:31:38;;;;;;;8.52;6.15;;;30.00;51.10;;;;;;5064991;28;20020;-82
2023/06/18 10:34:05;;;;;;;8.57;4.57;;;29.80;46.10;;;;;;5030082;28;20124;-75
2023/06/18 10:36:32;;;;;;;6.40;5.00;;;29.70;51.00;;;;;;5031403;28;20017;-81
2023/06/18 10:38:59;;;;;;;9.50;6.45;;;29.70;52.50;;;;;;5052984;28;20024;-79
2023/06/18 10:41:25;;;;;;;6.88;4.65;;;29.70;47.20;;;;;;5054663;28;20032;-76
2023/06/18 10:43:52;;;;;;;9.95;6.18;;;29.70;50.40;;;;;;5059442;28;20099;-80
2023/06/18 10:46:18;;;;;;;7.28;5.18;;;29.70;48.30;;;;;;5060415;28;20116;-77
2023/06/18 10:49:11;;;;;;;7.68;5.72;;;29.70;47.90;;;;;;5059207;28;20116;-84
2023/06/18 10:51:36;;;;;;;9.13;4.22;;;29.70;47.00;;;;;;5042087;28;20039;-77
2023/06/18 10:54:22;;;;;;;11.65;6.18;;;29.80;51.20;;;;;;5050264;28;20037;-77
2023/06/18 10:56:55;;;;;;;8.55;6.38;;;29.80;47.30;;;;;;5062792;28;20439;-79
2023/06/18 10:59:43;;;;;;;6.47;4.25;;;29.80;45.80;;;;;;5070038;28;20021;-80
2023/06/18 11:02:11;;;;;;;9.07;6.20;;;29.60;49.30;;;;;;5043853;28;20025;-78
2023/06/18 11:04:37;;;;;;;7.32;5.18;;;29.60;49.20;;;;;;5038197;28;20040;-80
2023/06/18 11:07:23;;;;;;;6.72;4.10;;;29.60;53.30;;;;;;5052641;28;20024;-80
2023/06/18 11:09:50;;;;;;;7.45;5.72;;;29.50;55.00;;;;;;5043076;28;20028;-76
2023/06/18 11:12:21;;;;;;;7.82;4.25;;;29.50;50.90;;;;;;5059639;28;20118;-80
2023/06/18 11:15:06;;;;;;;6.60;4.68;;;29.50;54.80;;;;;;5037620;28;20170;-79
2023/06/18 11:17:33;;;;;;;8.18;5.57;;;29.40;53.80;;;;;;5057123;28;20029;-80
2023/06/18 11:20:00;;;;;;;9.25;5.90;;;29.40;53.20;;;;;;5057673;28;20384;-77
2023/06/18 11:22:28;;;;;;;7.13;4.30;;;29.30;51.60;;;;;;5052145;28;20488;-78
2023/06/18 11:24:58;;;;;;;8.65;4.95;;;29.30;52.60;;;;;;5042826;28;20017;-77
2023/06/18 11:27:25;;;;;;;6.97;4.70;;;29.20;53.20;;;;;;5054743;28;20029;-78
2023/06/18 11:29:56;;;;;;;7.75;4.93;;;29.10;50.70;;;;;;5052879;28;20043;-78
2023/06/18 11:32:23;;;;;;;9.23;5.15;;;29.00;53.20;;;;;;5053224;28;20055;-77
2023/06/18 11:34:50;;;;;;;9.90;7.80;;;28.90;54.80;;;;;;5045760;28;20029;-76
2023/06/18 11:37:16;;;;;;;7.50;4.90;;;28.80;51.80;;;;;;5046831;28;20028;-78
2023/06/18 11:39:42;;;;;;;6.25;4.55;;;28.80;53.90;;;;;;5058133;28;20107;-78
2023/06/18 11:42:17;;;;;;;7.25;4.80;;;28.60;51.40;;;;;;5031699;28;20028;-78
2023/06/18 11:44:56;;;;;;;9.30;5.32;;;28.50;52.70;;;;;;5063776;28;20029;-77
2023/06/18 11:47:22;;;;;;;7.88;5.38;;;28.60;56.90;;;;;;5036848;28;20103;-78
2023/06/18 11:49:49;;;;;;;8.30;5.07;;;28.60;53.40;;;;;;5036130;28;20059;-77
2023/06/18 11:52:26;;;;;;;7.68;5.82;;;28.60;55.00;;;;;;5052829;28;20021;-78
2023/06/18 11:54:53;;;;;;;9.00;5.60;;;28.60;52.70;;;;;;5064243;28;20051;-76
2023/06/18 11:57:22;;;;;;;7.82;5.80;;;28.70;53.20;;;;;;5051927;28;20138;-78
2023/06/18 11:59:52;;;;;;;11.85;7.65;;;28.70;52.50;;;;;;5053560;28;20127;-77
2023/06/18 12:02:21;;;;;;;10.07;6.47;;;28.70;52.10;;;;;;5055873;28;20475;-77
2023/06/18 12:04:47;;;;;;;8.93;6.97;;;28.60;51.50;;;;;;5056569;28;20055;-79
2023/06/18 12:07:17;;;;;;;9.00;4.93;;;28.50;52.10;;;;;;5048382;28;20483;-76
2023/06/18 12:09:43;;;;;;;;;;;28.40;55.50;;;;;;5038492;28;20025;-78
2023/06/18 12:12:15;;;;;;;5.68;3.95;;;28.40;55.60;;;;;;5053353;28;19944;-76
2023/06/18 12:15:12;;;;;;;7.45;5.03;;;28.40;56.30;;;;;;5058903;28;20116;-76
2023/06/18 12:18:03;;;;;;;6.95;5.32;;;28.40;57.70;;;;;;5061695;28;20025;-79
2023/06/18 12:20:29;;;;;;;6.65;4.20;;;28.50;57.30;;;;;;5055698;28;20118;-77
2023/06/18 12:23:00;;;;;;;8.02;4.93;;;28.50;55.90;;;;;;5058852;28;20025;-76
2023/06/18 12:25:28;;;;;;;9.20;4.68;;;28.60;56.50;;;;;;5050345;28;20021;-78
2023/06/18 12:27:55;;;;;;;8.23;6.07;;;28.60;57.90;;;;;;5027443;28;20028;-77
2023/06/18 12:30:29;;;;;;;9.68;6.18;;;28.60;56.10;;;;;;5053910;28;20021;-77
2023/06/18 12:33:24;;;;;;;9.68;5.35;;;28.60;53.10;;;;;;5051011;28;20521;-77
2023/06/18 12:35:59;;;;;;;9.60;5.22;;;28.70;56.60;;;;;;5036005;28;20040;-76
2023/06/18 12:38:25;;;;;;;9.10;4.80;;;28.70;57.80;;;;;;5066242;28;20021;-77
2023/06/18 12:40:55;;;;;;;9.73;5.30;;;28.70;57.30;;;;;;5056968;28;20036;-77
2023/06/18 12:43:22;;;;;;;9.95;8.27;;;28.70;55.20;;;;;;5055209;28;20036;-76
2023/06/18 12:45:50;;;;;;;8.45;5.78;;;28.70;52.80;;;;;;5053633;28;20078;-75